createdAt,value
2019-01-27T00:04:48.509Z,27.40
2019-01-27T00:09:53.977Z,30.33
2019-01-27T00:14:57.281Z,28.30
2019-01-27T00:20:07.573Z,26.13
2019-01-27T00:25:17.389Z,25.20
2019-01-27T00:30:23.411Z,25.27
2019-01-27T00:35:26.705Z,24.67
2019-01-27T00:40:29.915Z,24.83
2019-01-27T00:45:33.399Z,24.03
2019-01-27T00:50:36.840Z,22.77
2019-01-27T00:55:40.178Z,21.37
2019-01-27T01:00:43.351Z,21.07
2019-01-27T01:05:47.488Z,20.23
2019-01-27T01:10:50.799Z,18.80
2019-01-27T01:15:57.209Z,17.97
2019-01-27T01:21:00.697Z,17.50
2019-01-27T01:26:04.142Z,17.70
2019-01-27T01:31:07.693Z,18.57
2019-01-27T01:36:11.058Z,16.80
2019-01-27T01:41:16.467Z,18.63
2019-01-27T01:46:19.906Z,17.60
2019-01-27T01:51:24.255Z,17.87
2019-01-27T01:56:27.422Z,17.67
2019-01-27T02:01:30.685Z,16.90
2019-01-27T02:06:34.249Z,17.67
2019-01-27T02:11:43.176Z,19.00
2019-01-27T02:16:46.565Z,17.23
2019-01-27T02:21:58.959Z,17.37
2019-01-27T02:27:02.440Z,17.70
2019-01-27T02:32:05.700Z,17.17
2019-01-27T02:37:12.233Z,18.33
2019-01-27T02:42:16.027Z,16.87
2019-01-27T02:47:19.162Z,16.87
2019-01-27T02:52:22.505Z,15.97
2019-01-27T02:57:28.566Z,16.83
2019-01-27T03:02:34.651Z,14.87
2019-01-27T03:07:38.727Z,15.20
2019-01-27T03:12:42.210Z,14.50
2019-01-27T03:17:45.884Z,13.60
2019-01-27T03:22:53.307Z,13.67
2019-01-27T03:27:56.704Z,12.70
2019-01-27T03:33:03.132Z,13.00
2019-01-27T03:38:06.603Z,12.30
2019-01-27T03:43:09.869Z,12.27
2019-01-27T03:48:13.148Z,11.60
2019-01-27T03:53:16.736Z,11.23
2019-01-27T03:58:19.982Z,11.13
2019-01-27T04:03:23.329Z,10.97
2019-01-27T04:08:26.875Z,10.07
2019-01-27T04:13:36.740Z,9.50
2019-01-27T04:18:42.915Z,9.20
2019-01-27T04:23:46.226Z,10.10
2019-01-27T04:28:50.703Z,9.40
2019-01-27T04:33:57.663Z,9.00
2019-01-27T04:39:01.045Z,9.97
2019-01-27T04:44:05.194Z,9.20
2019-01-27T04:49:08.577Z,8.50
2019-01-27T04:54:15.201Z,9.43
2019-01-27T04:59:21.514Z,9.20
2019-01-27T05:04:35.832Z,9.33
2019-01-27T05:09:39.291Z,8.67
2019-01-27T05:14:45.356Z,9.70
2019-01-27T05:19:48.597Z,8.93
2019-01-27T05:24:57.948Z,9.20
2019-01-27T05:30:03.355Z,9.03
2019-01-27T05:35:06.579Z,9.53
2019-01-27T05:40:10.635Z,9.37
2019-01-27T05:45:19.021Z,9.77
2019-01-27T05:50:22.462Z,8.10
2019-01-27T05:55:25.849Z,8.90
2019-01-27T06:00:41.256Z,8.63
2019-01-27T06:05:44.478Z,8.30
2019-01-27T06:10:47.816Z,8.33
2019-01-27T06:15:51.387Z,8.60
2019-01-27T06:20:54.689Z,8.20
2019-01-27T06:25:59.504Z,9.00
2019-01-27T06:31:02.789Z,8.70
2019-01-27T06:36:08.978Z,8.50
2019-01-27T06:41:13.538Z,8.03
2019-01-27T06:46:18.924Z,7.70
2019-01-27T06:51:22.234Z,8.60
2019-01-27T06:56:27.329Z,7.80
2019-01-27T07:01:56.706Z,7.93
2019-01-27T07:07:26.639Z,7.97
2019-01-27T07:12:52.272Z,7.80
2019-01-27T07:18:13.640Z,7.60
2019-01-27T07:23:42.015Z,7.47
2019-01-27T07:29:07.676Z,7.10
2019-01-27T07:34:30.412Z,7.00
2019-01-27T07:40:05.160Z,7.30
2019-01-27T07:45:21.989Z,6.20
2019-01-27T07:50:53.494Z,7.20
2019-01-27T07:56:15.098Z,6.80
2019-01-27T08:01:24.965Z,6.73
2019-01-27T08:06:46.399Z,6.30
2019-01-27T08:12:12.237Z,7.30
2019-01-27T08:17:51.842Z,6.20
2019-01-27T08:23:02.890Z,6.57
2019-01-27T08:28:19.509Z,6.67
2019-01-27T08:33:52.460Z,6.83
2019-01-27T08:39:19.074Z,6.73
2019-01-27T08:44:31.600Z,6.37
2019-01-27T08:49:35.113Z,7.07
2019-01-27T08:54:38.476Z,6.00
2019-01-27T08:59:42.148Z,6.20
2019-01-27T09:04:50.305Z,5.80
2019-01-27T09:10:02.907Z,5.83
2019-01-27T09:15:29.147Z,5.50
2019-01-27T09:20:51.914Z,5.67
2019-01-27T09:26:02.595Z,4.70
2019-01-27T09:31:33.965Z,5.40
2019-01-27T09:37:01.853Z,5.60
2019-01-27T09:42:13.152Z,5.30
2019-01-27T09:47:34.176Z,4.50
2019-01-27T09:52:59.705Z,4.77
2019-01-27T09:58:22.574Z,5.10
2019-01-27T10:03:45.345Z,4.70
2019-01-27T10:09:01.758Z,4.40
2019-01-27T10:14:20.633Z,4.60
2019-01-27T10:19:44.464Z,4.03
2019-01-27T10:25:07.430Z,4.40
2019-01-27T10:30:36.920Z,3.63
2019-01-27T10:36:09.411Z,3.97
2019-01-27T10:41:32.591Z,3.40
2019-01-27T10:46:46.243Z,3.50
2019-01-27T10:52:20.785Z,3.50
2019-01-27T10:57:52.667Z,3.43
2019-01-27T11:03:21.201Z,3.13
2019-01-27T11:09:02.467Z,3.13
2019-01-27T11:14:38.748Z,3.53
2019-01-27T11:20:07.354Z,2.90
2019-01-27T11:25:42.410Z,3.20
2019-01-27T11:31:03.843Z,3.17
2019-01-27T11:36:16.063Z,3.00
2019-01-27T11:41:38.524Z,2.70
2019-01-27T11:47:02.314Z,2.97
2019-01-27T11:52:15.405Z,3.00
2019-01-27T11:57:15.909Z,2.83
2019-01-27T12:02:22.419Z,2.90
2019-01-27T12:07:25.749Z,2.77
2019-01-27T12:12:32.380Z,2.53
2019-01-27T12:17:35.820Z,2.70
2019-01-27T12:22:39.165Z,2.40
2019-01-27T12:27:42.551Z,2.67
2019-01-27T12:32:46.135Z,2.47
2019-01-27T12:37:49.716Z,2.90
2019-01-27T12:42:54.389Z,3.03
2019-01-27T12:47:57.907Z,2.60
2019-01-27T12:53:01.349Z,2.30
2019-01-27T12:58:07.325Z,2.60
2019-01-27T13:03:21.442Z,2.20
2019-01-27T13:08:25.951Z,2.40
2019-01-27T13:13:29.292Z,3.70
2019-01-27T13:18:32.548Z,2.70
2019-01-27T13:23:35.862Z,2.60
2019-01-27T13:28:39.374Z,2.73
2019-01-27T13:33:42.791Z,2.50
2019-01-27T13:38:51.224Z,2.50
2019-01-27T13:43:53.509Z,2.47
2019-01-27T13:48:57.066Z,2.33
2019-01-27T13:54:00.810Z,2.30
2019-01-27T13:59:04.425Z,2.00
2019-01-27T14:04:07.940Z,2.60
2019-01-27T14:09:11.867Z,1.67
2019-01-27T14:14:16.904Z,3.00
2019-01-27T14:19:20.319Z,1.73
2019-01-27T14:24:23.879Z,1.80
2019-01-27T14:29:27.464Z,1.80
2019-01-27T14:34:30.567Z,1.67
2019-01-27T14:39:33.971Z,2.47
2019-01-27T14:44:40.389Z,1.97
2019-01-27T14:49:43.703Z,1.87
2019-01-27T14:54:48.827Z,2.30
2019-01-27T14:59:52.257Z,2.20
2019-01-27T15:04:55.754Z,2.60
2019-01-27T15:10:01.115Z,2.67
2019-01-27T15:15:05.891Z,3.00
2019-01-27T15:25:28.507Z,2.83
2019-01-27T15:30:31.996Z,3.50
2019-01-27T15:35:35.805Z,2.90
2019-01-27T15:52:00.522Z,3.00
2019-01-27T15:57:58.206Z,3.60
2019-01-27T16:03:55.810Z,4.03
2019-01-27T16:09:57.403Z,3.30
2019-01-27T16:14:59.654Z,3.60
2019-01-27T16:20:57.031Z,3.70
2019-01-27T16:32:11.740Z,4.17
2019-01-27T16:38:09.711Z,3.60
2019-01-27T16:44:09.154Z,3.77
2019-01-27T16:50:06.846Z,4.60
2019-01-27T16:56:04.657Z,4.93
2019-01-27T17:02:02.306Z,5.40
2019-01-27T17:07:59.958Z,5.93
2019-01-27T17:13:02.785Z,5.50
2019-01-27T17:19:00.351Z,4.40
2019-01-27T17:24:58.826Z,4.30
2019-01-27T17:30:56.602Z,4.37
2019-01-27T17:36:54.798Z,4.73
2019-01-27T17:42:52.352Z,4.60
2019-01-27T17:48:49.343Z,5.10
2019-01-27T17:54:46.893Z,9.40
2019-01-27T18:00:44.515Z,5.07
2019-01-27T18:06:42.083Z,5.97
2019-01-27T18:12:05.462Z,5.70
2019-01-27T18:18:03.045Z,6.37
2019-01-27T18:24:00.510Z,6.00
2019-01-27T18:29:03.298Z,6.23
2019-01-27T18:35:00.878Z,7.23
2019-01-27T18:40:58.415Z,6.77
2019-01-27T18:46:56.192Z,7.57
2019-01-27T18:52:53.761Z,6.67
2019-01-27T18:58:51.317Z,7.23
2019-01-27T19:04:50.061Z,7.50
2019-01-27T19:10:18.253Z,8.17
2019-01-27T19:16:16.123Z,8.40
2019-01-27T19:22:13.728Z,7.17
2019-01-27T19:28:11.468Z,8.30
2019-01-27T19:34:09.098Z,8.70
2019-01-27T19:40:06.432Z,9.97
2019-01-27T19:46:03.534Z,11.10
2019-01-27T19:52:00.843Z,10.90
2019-01-27T19:57:57.949Z,11.43
2019-01-27T20:03:55.475Z,13.40
2019-01-27T20:09:53.241Z,13.10
2019-01-27T20:15:05.709Z,12.90
2019-01-27T20:21:02.946Z,13.60
2019-01-27T20:33:04.046Z,13.73
2019-01-27T20:39:01.924Z,15.13
2019-01-27T20:51:02.856Z,13.70
2019-01-27T20:57:00.844Z,13.20
2019-01-27T21:02:58.949Z,11.40
2019-01-27T21:08:21.398Z,9.30
2019-01-27T21:14:19.577Z,9.90
2019-01-27T21:20:17.177Z,7.43
2019-01-27T21:26:15.068Z,7.20
2019-01-27T21:32:12.784Z,6.53
2019-01-27T21:38:10.641Z,6.50
2019-01-27T21:44:08.532Z,6.50
2019-01-27T21:50:06.422Z,5.90
2019-01-27T21:56:04.311Z,6.30
2019-01-27T22:01:43.769Z,6.53
2019-01-27T22:06:47.316Z,5.70
2019-01-27T22:12:45.584Z,4.90
2019-01-27T22:18:43.199Z,5.07
2019-01-27T22:24:40.955Z,5.20
2019-01-27T22:30:38.639Z,3.60
2019-01-27T22:36:36.162Z,4.07
2019-01-27T22:42:34.113Z,3.97
2019-01-27T22:48:31.796Z,3.93
2019-01-27T22:54:29.584Z,2.90
2019-01-27T23:00:27.574Z,3.07
2019-01-27T23:06:25.378Z,4.33
2019-01-27T23:11:28.841Z,4.27
2019-01-27T23:17:26.764Z,4.30
2019-01-27T23:23:24.309Z,5.20
2019-01-27T23:29:22.340Z,5.27
2019-01-27T23:35:20.130Z,5.20
2019-01-27T23:41:18.021Z,4.60
2019-01-27T23:47:15.702Z,5.30
2019-01-27T23:53:13.592Z,6.20
2019-01-27T23:59:11.286Z,7.90
